createdAt,value
2022-11-24T00:02:03.723Z,95543.13
2022-11-24T00:04:32.435Z,95551.66
2022-11-24T00:07:01.078Z,95552.97
2022-11-24T00:09:30.001Z,95568.59
2022-11-24T00:12:01.319Z,95564.66
2022-11-24T00:14:29.699Z,95569.09
2022-11-24T00:16:58.489Z,95566.13
2022-11-24T00:19:26.873Z,95562.34
2022-11-24T00:21:55.260Z,95573.34
2022-11-24T00:24:23.717Z,95575.97
2022-11-24T00:26:52.025Z,95577.97
2022-11-24T00:29:23.157Z,95580.09
2022-11-24T00:31:51.689Z,95578.25
2022-11-24T00:34:20.152Z,95582.06
2022-11-24T00:36:48.551Z,95583.22
2022-11-24T00:39:17.316Z,95591.78
2022-11-24T00:41:49.516Z,95591.63
2022-11-24T00:44:20.429Z,95594.06
2022-11-24T00:46:50.498Z,95595.22
2022-11-24T00:49:18.924Z,95599.66
2022-11-24T00:51:47.438Z,95608.38
2022-11-24T00:54:16.137Z,95617.72
2022-11-24T00:56:44.435Z,95621.34
2022-11-24T00:59:13.055Z,95625.97
2022-11-24T01:01:42.078Z,95627.75
2022-11-24T01:04:11.866Z,95641.09
2022-11-24T01:06:40.191Z,95632.53
2022-11-24T01:09:08.840Z,95643.72
2022-11-24T01:11:51.119Z,95656.88
2022-11-24T01:14:19.933Z,95661.78
2022-11-24T01:16:48.501Z,95660.81
2022-11-24T01:19:18.556Z,95670.34
2022-11-24T01:21:47.078Z,95681.50
2022-11-24T01:24:15.892Z,95673.47
2022-11-24T01:26:44.280Z,95674.47
2022-11-24T01:29:13.567Z,95672.97
2022-11-24T01:31:41.953Z,95676.75
2022-11-24T01:34:10.295Z,95678.88
2022-11-24T01:36:40.005Z,95680.84
2022-11-24T01:39:08.445Z,95682.00
2022-11-24T01:41:36.920Z,95695.31
2022-11-24T01:44:21.420Z,95690.38
2022-11-24T01:46:53.476Z,95697.44
2022-11-24T01:49:26.108Z,95710.44
2022-11-24T01:52:00.824Z,95706.00
2022-11-24T01:54:32.306Z,95711.75
2022-11-24T01:57:08.924Z,95713.06
2022-11-24T01:59:38.180Z,95712.75
2022-11-24T02:02:07.212Z,95721.63
2022-11-24T02:04:37.070Z,95726.88
2022-11-24T02:07:08.393Z,95733.47
2022-11-24T02:09:44.491Z,95737.59
2022-11-24T02:12:12.855Z,95743.84
2022-11-24T02:14:42.925Z,95751.88
2022-11-24T02:17:11.623Z,95749.44
2022-11-24T02:19:49.216Z,95754.84
2022-11-24T02:22:26.713Z,95764.53
2022-11-24T02:25:03.610Z,95772.09
2022-11-24T02:27:33.387Z,95762.03
2022-11-24T02:30:01.928Z,95774.66
2022-11-24T02:32:32.535Z,95762.63
2022-11-24T02:35:02.472Z,95769.94
2022-11-24T02:37:30.887Z,95775.16
2022-11-24T02:39:59.160Z,95775.50
2022-11-24T02:42:29.739Z,95772.03
2022-11-24T02:45:01.720Z,95771.06
2022-11-24T02:47:30.104Z,95773.22
2022-11-24T02:49:58.451Z,95778.34
2022-11-24T02:52:26.693Z,95778.41
2022-11-24T02:54:55.047Z,95783.03
2022-11-24T02:57:23.840Z,95783.53
2022-11-24T02:59:52.172Z,95783.19
2022-11-24T03:02:22.038Z,95792.75
2022-11-24T03:04:50.424Z,95786.34
2022-11-24T03:07:19.216Z,95788.81
2022-11-24T03:09:47.620Z,95796.69
2022-11-24T03:12:15.988Z,95790.63
2022-11-24T03:14:45.504Z,95801.16
2022-11-24T03:17:13.921Z,95799.31
2022-11-24T03:19:43.660Z,95797.50
2022-11-24T03:22:13.475Z,95809.69
2022-11-24T03:24:41.763Z,95809.69
2022-11-24T03:27:11.349Z,95802.63
2022-11-24T03:29:39.634Z,95818.25
2022-11-24T03:32:08.118Z,95818.25
2022-11-24T03:34:36.489Z,95821.69
2022-11-24T03:37:06.277Z,95824.97
2022-11-24T03:39:34.657Z,95825.66
2022-11-24T03:42:03.214Z,95836.97
2022-11-24T03:44:31.710Z,95831.72
2022-11-24T03:47:00.195Z,95836.97
2022-11-24T03:49:28.563Z,95837.16
2022-11-24T03:51:56.858Z,95836.31
2022-11-24T03:54:26.673Z,95844.22
2022-11-24T03:56:55.087Z,95847.50
2022-11-24T03:59:23.497Z,95852.75
2022-11-24T04:01:51.887Z,95858.03
2022-11-24T04:04:20.238Z,95850.13
2022-11-24T04:06:48.588Z,95856.38
2022-11-24T04:09:17.321Z,95860.00
2022-11-24T04:12:04.584Z,95868.88
2022-11-24T04:14:33.407Z,95866.91
2022-11-24T04:17:01.942Z,95859.84
2022-11-24T04:19:30.223Z,95865.75
2022-11-24T04:21:58.668Z,95878.91
2022-11-24T04:24:26.965Z,95873.66
2022-11-24T04:26:56.730Z,95879.06
2022-11-24T04:29:25.038Z,95880.06
2022-11-24T04:31:53.312Z,95883.66
2022-11-24T04:34:21.811Z,95883.81
2022-11-24T04:36:50.158Z,95888.41
2022-11-24T04:39:23.809Z,95898.44
2022-11-24T04:41:55.936Z,95898.59
2022-11-24T04:44:24.251Z,95896.78
2022-11-24T04:46:52.579Z,95901.38
2022-11-24T04:49:21.225Z,95904.81
2022-11-24T04:51:54.760Z,95908.59
2022-11-24T04:54:23.141Z,95909.56
2022-11-24T04:56:52.631Z,95910.53
2022-11-24T04:59:22.322Z,95911.50
2022-11-24T05:01:50.846Z,95915.94
2022-11-24T05:04:21.332Z,95914.16
2022-11-24T05:06:49.674Z,95915.00
2022-11-24T05:09:19.105Z,95913.31
2022-11-24T05:11:47.605Z,95909.06
2022-11-24T05:14:15.926Z,95905.59
2022-11-24T05:16:45.677Z,95907.25
2022-11-24T05:19:14.155Z,95919.59
2022-11-24T05:21:42.600Z,95922.22
2022-11-24T05:24:11.645Z,95923.03
2022-11-24T05:26:40.218Z,95922.88
2022-11-24T05:29:08.551Z,95918.59
2022-11-24T05:31:36.885Z,95927.28
2022-11-24T05:34:06.669Z,95932.53
2022-11-24T05:36:52.650Z,95932.53
2022-11-24T05:39:21.062Z,95930.09
2022-11-24T05:41:49.374Z,95938.81
2022-11-24T05:44:17.790Z,95931.06
2022-11-24T05:46:46.140Z,95946.69
2022-11-24T05:49:15.931Z,95939.75
2022-11-24T05:51:44.215Z,95948.31
2022-11-24T05:54:12.567Z,95949.16
2022-11-24T05:56:40.841Z,95950.28
2022-11-24T05:59:10.098Z,95954.88
2022-11-24T06:01:38.735Z,95959.78
2022-11-24T06:04:07.044Z,95961.03
2022-11-24T06:06:37.175Z,95974.66
2022-11-24T06:09:05.938Z,95975.13
2022-11-24T06:11:34.436Z,95975.28
2022-11-24T06:14:05.783Z,95982.34
2022-11-24T06:16:38.261Z,95991.34
2022-11-24T06:19:07.090Z,95989.69
2022-11-24T06:21:37.827Z,95986.53
2022-11-24T06:24:06.760Z,95988.34
2022-11-24T06:26:35.089Z,95998.03
2022-11-24T06:29:03.430Z,96001.63
2022-11-24T06:31:31.799Z,95992.94
2022-11-24T06:34:01.697Z,95995.56
2022-11-24T06:36:30.077Z,96000.97
2022-11-24T06:39:02.725Z,96009.81
2022-11-24T06:41:31.060Z,96010.66
2022-11-24T06:43:59.412Z,96007.19
2022-11-24T06:46:28.043Z,96008.84
2022-11-24T06:48:56.357Z,96010.66
2022-11-24T06:51:25.939Z,96012.28
2022-11-24T06:53:54.524Z,96011.47
2022-11-24T06:56:24.261Z,96010.50
2022-11-24T06:58:54.161Z,96008.72
2022-11-24T07:01:25.505Z,96009.53
2022-11-24T07:03:55.229Z,96016.59
2022-11-24T07:06:25.946Z,96015.59
2022-11-24T07:08:54.325Z,96021.84
2022-11-24T07:11:25.209Z,96016.59
2022-11-24T07:13:58.306Z,96018.38
2022-11-24T07:16:29.144Z,96017.56
2022-11-24T07:18:58.030Z,96024.47
2022-11-24T07:21:27.294Z,96027.25
2022-11-24T07:23:57.074Z,96024.63
2022-11-24T07:26:27.179Z,96035.13
2022-11-24T07:28:55.568Z,96034.13
2022-11-24T07:31:26.602Z,96046.31
2022-11-24T07:33:56.220Z,96037.44
2022-11-24T07:36:25.186Z,96039.09
2022-11-24T07:38:53.566Z,96038.97
2022-11-24T07:41:22.114Z,96044.03
2022-11-24T07:43:52.187Z,96041.28
2022-11-24T07:46:21.330Z,96043.91
2022-11-24T07:48:49.814Z,96055.25
2022-11-24T07:51:18.364Z,96050.00
2022-11-24T07:53:47.017Z,96052.63
2022-11-24T07:56:15.434Z,96059.53
2022-11-24T07:58:48.297Z,96056.59
2022-11-24T08:01:22.341Z,96048.53
2022-11-24T08:03:50.752Z,96056.28
2022-11-24T08:06:26.039Z,96051.69
2022-11-24T08:08:57.758Z,96050.75
2022-11-24T08:11:26.736Z,96054.03
2022-11-24T08:13:55.110Z,96048.94
2022-11-24T08:16:24.859Z,96051.88
2022-11-24T08:18:55.402Z,96041.50
2022-11-24T08:21:24.659Z,96046.25
2022-11-24T08:23:56.130Z,96048.19
2022-11-24T08:26:25.428Z,96056.38
2022-11-24T08:28:56.331Z,96054.72
2022-11-24T08:31:32.678Z,96050.56
2022-11-24T08:34:02.239Z,96043.84
2022-11-24T08:36:30.634Z,96046.47
2022-11-24T08:39:00.407Z,96048.28
2022-11-24T08:41:30.056Z,96046.47
2022-11-24T08:43:58.864Z,96044.34
2022-11-24T08:46:28.783Z,96048.06
2022-11-24T08:48:57.322Z,96048.78
2022-11-24T08:51:27.853Z,96046.75
2022-11-24T08:53:58.357Z,96051.91
2022-11-24T08:56:28.078Z,96044.22
2022-11-24T08:58:57.141Z,96050.19
2022-11-24T09:01:27.071Z,96051.00
2022-11-24T09:03:56.996Z,96043.13
2022-11-24T09:06:27.116Z,96052.63
2022-11-24T09:08:55.846Z,96055.13
2022-11-24T09:11:25.816Z,96051.34
2022-11-24T09:13:54.596Z,96052.03
2022-11-24T09:16:25.867Z,96055.03
2022-11-24T09:19:00.527Z,96050.28
2022-11-24T09:21:29.539Z,96045.69
2022-11-24T09:23:58.615Z,96045.41
2022-11-24T09:26:29.287Z,96045.06
2022-11-24T09:28:59.248Z,96033.44
2022-11-24T09:31:30.110Z,96031.47
2022-11-24T09:34:00.571Z,96032.13
2022-11-24T09:36:29.675Z,96033.78
2022-11-24T09:38:58.052Z,96044.16
2022-11-24T09:41:40.282Z,96042.72
2022-11-24T09:44:18.280Z,96045.72
2022-11-24T09:46:56.014Z,96047.84
2022-11-24T09:49:34.659Z,96048.22
2022-11-24T09:52:09.637Z,96052.34
2022-11-24T09:54:47.708Z,96058.94
2022-11-24T09:57:18.929Z,96051.56
2022-11-24T09:59:47.264Z,96050.25
2022-11-24T10:02:15.768Z,96056.03
2022-11-24T10:04:47.514Z,96052.41
2022-11-24T10:07:23.991Z,96055.72
2022-11-24T10:10:03.192Z,96047.16
2022-11-24T10:12:50.234Z,96046.84
2022-11-24T10:15:28.037Z,96049.00
2022-11-24T10:18:16.931Z,96046.41
2022-11-24T10:21:00.379Z,96047.91
2022-11-24T10:23:43.754Z,96047.47
2022-11-24T10:26:32.690Z,96036.63
2022-11-24T10:29:01.834Z,96034.16
2022-11-24T10:31:33.979Z,96042.75
2022-11-24T10:34:10.648Z,96027.59
2022-11-24T10:36:47.030Z,96035.00
2022-11-24T10:39:21.554Z,96035.84
2022-11-24T10:41:55.465Z,96033.91
2022-11-24T10:44:23.859Z,96039.38
2022-11-24T10:46:52.809Z,96038.88
2022-11-24T10:49:26.157Z,96036.88
2022-11-24T10:52:05.869Z,96050.88
2022-11-24T10:54:36.088Z,96053.88
2022-11-24T10:57:04.725Z,96063.91
2022-11-24T10:59:37.258Z,96064.22
2022-11-24T11:02:29.937Z,96068.03
2022-11-24T11:04:58.621Z,96074.81
2022-11-24T11:07:28.692Z,96065.59
2022-11-24T11:10:20.158Z,96071.34
2022-11-24T11:12:48.651Z,96087.34
2022-11-24T11:15:24.874Z,96078.25
2022-11-24T11:17:57.410Z,96101.81
2022-11-24T11:20:30.449Z,96096.03
2022-11-24T11:23:02.856Z,96104.22
2022-11-24T11:25:34.156Z,96094.63
2022-11-24T11:28:27.900Z,96118.78
2022-11-24T11:31:18.118Z,96108.00
2022-11-24T11:34:03.815Z,96108.13
2022-11-24T11:36:34.465Z,96109.44
2022-11-24T11:39:04.849Z,96106.47
2022-11-24T11:41:37.268Z,96116.78
2022-11-24T11:44:28.773Z,96115.78
2022-11-24T11:47:00.067Z,96118.88
2022-11-24T11:49:28.615Z,96120.97
2022-11-24T11:52:16.373Z,96133.63
2022-11-24T11:55:08.363Z,96133.44
2022-11-24T11:57:49.021Z,96144.72
2022-11-24T12:00:21.943Z,96135.63
2022-11-24T12:03:06.153Z,96147.59
2022-11-24T12:05:49.518Z,96146.25
2022-11-24T12:08:29.433Z,96167.91
2022-11-24T12:11:07.240Z,96160.78
2022-11-24T12:13:45.170Z,96162.06
2022-11-24T12:16:27.682Z,96153.63
2022-11-24T12:19:05.609Z,96155.47
2022-11-24T12:21:43.344Z,96153.34
2022-11-24T12:24:18.922Z,96153.72
2022-11-24T12:26:54.348Z,96160.63
2022-11-24T12:29:47.090Z,96161.59
2022-11-24T12:32:30.722Z,96145.97
2022-11-24T12:35:09.950Z,96144.03
2022-11-24T12:37:52.164Z,96149.13
2022-11-24T12:40:33.036Z,96151.59
2022-11-24T12:43:14.338Z,96159.63
2022-11-24T12:46:02.768Z,96167.72
2022-11-24T12:48:46.573Z,96167.00
2022-11-24T12:51:18.727Z,96171.44
2022-11-24T12:53:49.532Z,96176.72
2022-11-24T12:56:25.142Z,96181.00
2022-11-24T12:59:02.748Z,96190.19
2022-11-24T13:01:37.187Z,96183.53
2022-11-24T13:04:13.884Z,96185.88
2022-11-24T13:06:52.072Z,96194.44
2022-11-24T13:09:20.865Z,96188.22
2022-11-24T13:11:50.393Z,96191.38
2022-11-24T13:14:24.680Z,96197.47
2022-11-24T13:17:29.306Z,96202.88
2022-11-24T13:19:47.704Z,96198.06
2022-11-24T13:22:19.612Z,96201.38
2022-11-24T13:25:13.669Z,96203.84
2022-11-24T13:27:44.967Z,96185.81
2022-11-24T13:30:50.089Z,96185.34
2022-11-24T13:33:35.560Z,96191.00
2022-11-24T13:36:31.975Z,96192.47
2022-11-24T13:39:02.028Z,96187.75
2022-11-24T13:42:41.182Z,96193.78
2022-11-24T13:45:03.121Z,96191.63
2022-11-24T13:47:39.369Z,96192.53
2022-11-24T13:50:14.971Z,96187.31
2022-11-24T13:52:49.716Z,96188.00
2022-11-24T13:55:29.383Z,96189.44
2022-11-24T13:58:22.625Z,96197.13
2022-11-24T14:01:06.730Z,96183.72
2022-11-24T14:03:37.529Z,96194.72
2022-11-24T14:06:07.600Z,96187.97
2022-11-24T14:08:39.472Z,96191.91
2022-11-24T14:11:15.589Z,96192.19
2022-11-24T14:13:43.976Z,96183.75
2022-11-24T14:16:17.355Z,96184.91
2022-11-24T14:18:47.769Z,96185.88
2022-11-24T14:21:29.273Z,96180.59
2022-11-24T14:24:01.065Z,96184.50
2022-11-24T14:26:34.266Z,96179.75
2022-11-24T14:29:07.289Z,96187.66
2022-11-24T14:31:35.707Z,96192.25
2022-11-24T14:34:19.334Z,96196.13
2022-11-24T14:36:49.366Z,96200.91
2022-11-24T14:39:19.504Z,96199.22
2022-11-24T14:41:53.398Z,96202.00
2022-11-24T14:44:25.130Z,96201.34
2022-11-24T14:47:06.691Z,96213.53
2022-11-24T14:49:35.738Z,96214.34
2022-11-24T14:52:13.531Z,96210.75
2022-11-24T14:54:48.869Z,96219.31
2022-11-24T14:57:31.788Z,96246.47
2022-11-24T15:00:16.972Z,96290.97
2022-11-24T15:02:48.498Z,96282.19
2022-11-24T15:05:17.442Z,96266.75
2022-11-24T15:07:49.305Z,96263.16
2022-11-24T15:10:33.811Z,96260.88
2022-11-24T15:13:05.341Z,96260.25
2022-11-24T15:15:36.417Z,96254.59
2022-11-24T15:18:07.118Z,96251.44
2022-11-24T15:20:38.273Z,96264.22
2022-11-24T15:23:24.878Z,96261.03
2022-11-24T15:25:54.342Z,96273.50
2022-11-24T15:28:26.124Z,96288.88
2022-11-24T15:30:55.360Z,96271.47
2022-11-24T15:33:24.710Z,96266.34
2022-11-24T15:35:53.424Z,96255.97
2022-11-24T15:38:23.924Z,96264.53
2022-11-24T15:40:54.437Z,96268.97
2022-11-24T15:43:36.624Z,96290.13
2022-11-24T15:46:06.073Z,96284.47
2022-11-24T15:48:34.905Z,96287.41
2022-11-24T15:51:05.324Z,96291.97
2022-11-24T15:53:38.989Z,96296.38
2022-11-24T15:56:09.743Z,96286.88
2022-11-24T15:58:38.103Z,96294.75
2022-11-24T16:01:06.617Z,96297.38
2022-11-24T16:03:50.417Z,96297.50
2022-11-24T16:06:25.061Z,96302.63
2022-11-24T16:08:55.693Z,96308.56
2022-11-24T16:11:24.276Z,96308.44
2022-11-24T16:13:54.255Z,96316.19
2022-11-24T16:16:24.964Z,96327.22
2022-11-24T16:18:53.910Z,96332.47
2022-11-24T16:21:22.201Z,96325.84
2022-11-24T16:23:50.548Z,96325.16
2022-11-24T16:26:20.326Z,96317.41
2022-11-24T16:28:48.643Z,96322.38
2022-11-24T16:31:18.007Z,96322.81
2022-11-24T16:33:46.897Z,96323.03
2022-11-24T16:36:15.558Z,96313.22
2022-11-24T16:38:43.904Z,96316.53
2022-11-24T16:41:12.569Z,96319.00
2022-11-24T16:43:42.367Z,96312.63
2022-11-24T16:46:21.507Z,96320.22
2022-11-24T16:48:51.750Z,96325.50
2022-11-24T16:51:21.735Z,96318.28
2022-11-24T16:53:57.478Z,96330.47
2022-11-24T16:56:25.927Z,96330.47
2022-11-24T16:58:56.170Z,96325.22
2022-11-24T17:01:25.894Z,96319.09
2022-11-24T17:03:54.427Z,96319.97
2022-11-24T17:06:23.483Z,96313.72
2022-11-24T17:08:51.794Z,96309.44
2022-11-24T17:11:21.571Z,96312.88
2022-11-24T17:13:50.168Z,96317.16
2022-11-24T17:16:21.536Z,96318.00
2022-11-24T17:18:50.379Z,96319.78
2022-11-24T17:21:20.597Z,96318.00
2022-11-24T17:23:49.318Z,96321.47
2022-11-24T17:26:18.945Z,96319.66
2022-11-24T17:28:47.327Z,96325.06
2022-11-24T17:31:21.990Z,96313.84
2022-11-24T17:33:50.624Z,96321.19
2022-11-24T17:36:19.012Z,96318.06
2022-11-24T17:38:49.514Z,96312.25
2022-11-24T17:41:18.367Z,96320.41
2022-11-24T17:43:50.301Z,96331.75
2022-11-24T17:46:20.437Z,96330.38
2022-11-24T17:48:48.817Z,96329.69
2022-11-24T17:51:19.550Z,96327.06
2022-11-24T17:53:50.493Z,96328.34
2022-11-24T17:56:20.157Z,96324.19
2022-11-24T17:58:49.399Z,96327.09
2022-11-24T18:01:17.932Z,96323.94
2022-11-24T18:03:51.927Z,96333.06
2022-11-24T18:06:24.967Z,96322.84
2022-11-24T18:08:55.080Z,96330.88
2022-11-24T18:11:30.635Z,96328.53
2022-11-24T18:14:02.387Z,96327.00
2022-11-24T18:16:32.669Z,96335.34
2022-11-24T18:19:09.184Z,96333.94
2022-11-24T18:21:38.852Z,96334.91
2022-11-24T18:24:08.075Z,96330.91
2022-11-24T18:26:36.641Z,96335.63
2022-11-24T18:29:05.599Z,96330.63
2022-11-24T18:31:35.529Z,96324.84
2022-11-24T18:34:07.134Z,96331.03
2022-11-24T18:36:35.993Z,96324.13
2022-11-24T18:39:05.612Z,96332.16
2022-11-24T18:41:34.064Z,96324.53
2022-11-24T18:44:03.443Z,96321.22
2022-11-24T18:46:31.823Z,96326.63
2022-11-24T18:49:00.258Z,96326.06
2022-11-24T18:51:30.291Z,96324.41
2022-11-24T18:53:58.960Z,96331.47
2022-11-24T18:56:28.010Z,96325.50
2022-11-24T18:58:57.610Z,96320.41
2022-11-24T19:01:27.960Z,96319.56
2022-11-24T19:03:58.619Z,96329.38
2022-11-24T19:06:32.302Z,96326.06
2022-11-24T19:09:03.176Z,96320.97
2022-11-24T19:11:33.755Z,96319.44
2022-11-24T19:14:03.317Z,96319.75
2022-11-24T19:16:31.888Z,96328.69
2022-11-24T19:19:02.438Z,96324.44
2022-11-24T19:21:35.407Z,96320.13
2022-11-24T19:24:05.694Z,96329.00
2022-11-24T19:26:35.914Z,96323.06
2022-11-24T19:29:05.575Z,96323.19
2022-11-24T19:31:34.868Z,96327.44
2022-11-24T19:34:05.369Z,96323.19
2022-11-24T19:36:43.756Z,96325.81
2022-11-24T19:39:15.657Z,96313.81
2022-11-24T19:41:44.064Z,96325.38
2022-11-24T19:44:13.427Z,96323.88
2022-11-24T19:46:41.841Z,96321.38
2022-11-24T19:49:10.189Z,96325.25
2022-11-24T19:51:40.767Z,96338.50
2022-11-24T19:54:15.409Z,96331.59
2022-11-24T19:56:43.953Z,96328.13
2022-11-24T19:59:20.673Z,96332.84
2022-11-24T20:01:49.373Z,96332.97
2022-11-24T20:04:20.466Z,96335.88
2022-11-24T20:06:48.849Z,96328.00
2022-11-24T20:09:20.468Z,96332.53
2022-11-24T20:11:49.745Z,96336.97
2022-11-24T20:14:19.591Z,96341.41
2022-11-24T20:16:48.131Z,96342.34
2022-11-24T20:19:19.889Z,96344.16
2022-11-24T20:21:50.013Z,96334.59
2022-11-24T20:24:22.293Z,96349.53
2022-11-24T20:26:52.677Z,96339.97
2022-11-24T20:29:21.439Z,96335.72
2022-11-24T20:31:51.788Z,96336.97
2022-11-24T20:34:21.171Z,96337.09
2022-11-24T20:36:49.742Z,96339.97
2022-11-24T20:39:21.401Z,96336.81
2022-11-24T20:41:50.180Z,96354.19
2022-11-24T20:44:21.329Z,96337.50
2022-11-24T20:46:50.444Z,96342.47
2022-11-24T20:49:21.881Z,96340.66
2022-11-24T20:51:54.584Z,96340.81
2022-11-24T20:54:24.663Z,96348.94
2022-11-24T20:56:53.019Z,96339.44
2022-11-24T20:59:23.615Z,96334.31
2022-11-24T21:01:55.055Z,96338.75
2022-11-24T21:04:25.865Z,96345.75
2022-11-24T21:06:54.672Z,96343.25
2022-11-24T21:09:24.825Z,96335.56
2022-11-24T21:11:53.332Z,96349.63
2022-11-24T21:14:21.784Z,96336.63
2022-11-24T21:16:50.100Z,96340.22
2022-11-24T21:19:19.229Z,96340.50
2022-11-24T21:21:48.696Z,96354.56
2022-11-24T21:24:18.800Z,96346.00
2022-11-24T21:26:49.189Z,96340.06
2022-11-24T21:29:20.242Z,96339.91
2022-11-24T21:31:48.909Z,96335.78
2022-11-24T21:34:19.495Z,96355.13
2022-11-24T21:36:48.167Z,96339.38
2022-11-24T21:39:17.553Z,96351.78
2022-11-24T21:41:46.129Z,96342.13
2022-11-24T21:44:15.948Z,96335.09
2022-11-24T21:46:49.582Z,96334.53
2022-11-24T21:49:19.622Z,96332.72
2022-11-24T21:51:49.800Z,96334.66
2022-11-24T21:54:18.206Z,96338.25
2022-11-24T21:56:46.715Z,96344.44
2022-11-24T21:59:16.445Z,96329.69
2022-11-24T22:01:44.826Z,96342.81
2022-11-24T22:04:13.105Z,96340.19
2022-11-24T22:06:41.706Z,96343.75
2022-11-24T22:09:16.356Z,96329.94
2022-11-24T22:11:46.808Z,96334.50
2022-11-24T22:14:16.553Z,96331.88
2022-11-24T22:16:45.005Z,96329.25
2022-11-24T22:19:13.497Z,96331.88
2022-11-24T22:21:41.878Z,96335.31
2022-11-24T22:24:10.413Z,96324.84
2022-11-24T22:26:38.977Z,96329.25
2022-11-24T22:29:08.352Z,96328.44
2022-11-24T22:31:38.477Z,96329.38
2022-11-24T22:34:07.008Z,96326.06
2022-11-24T22:36:36.646Z,96333.09
2022-11-24T22:39:07.049Z,96337.41
2022-11-24T22:41:36.698Z,96335.72
2022-11-24T22:44:05.737Z,96340.97
2022-11-24T22:46:34.076Z,96338.47
2022-11-24T22:49:07.370Z,96335.84
2022-11-24T22:51:36.056Z,96327.16
2022-11-24T22:54:05.720Z,96335.97
2022-11-24T22:56:35.013Z,96338.88
2022-11-24T22:59:05.409Z,96336.25
2022-11-24T23:01:34.754Z,96340.69
2022-11-24T23:04:05.118Z,96325.09
2022-11-24T23:06:34.508Z,96333.06
2022-11-24T23:09:04.674Z,96322.72
2022-11-24T23:11:38.108Z,96321.06
2022-11-24T23:14:08.628Z,96314.84
2022-11-24T23:16:37.100Z,96315.66
2022-11-24T23:19:07.071Z,96312.22
2022-11-24T23:21:38.622Z,96315.13
2022-11-24T23:24:08.524Z,96309.03
2022-11-24T23:26:38.913Z,96314.44
2022-11-24T23:29:07.897Z,96319.69
2022-11-24T23:31:39.666Z,96315.50
2022-11-24T23:34:09.909Z,96324.34
2022-11-24T23:36:38.397Z,96324.47
2022-11-24T23:39:09.295Z,96326.97
2022-11-24T23:41:38.161Z,96325.41
2022-11-24T23:44:07.046Z,96328.19
2022-11-24T23:46:35.996Z,96329.97
2022-11-24T23:49:04.732Z,96321.41
2022-11-24T23:51:34.737Z,96324.16
2022-11-24T23:54:03.227Z,96321.69
2022-11-24T23:56:33.624Z,96317.41
2022-11-24T23:59:03.280Z,96311.34
